地図

経路データ

SID SEASON NUMBER BASIN SUBBASIN NAME ISO_TIME NATURE LAT LON WMO_WIND WMO_PRES WMO_AGENCY TRACK_TYPE DIST2LAND LANDFALL IFLAG USA_AGENCY USA_ATCF_ID USA_LAT USA_LON USA_RECORD USA_STATUS USA_WIND USA_PRES USA_SSHS USA_R34_NE USA_R34_SE USA_R34_SW USA_R34_NW USA_R50_NE USA_R50_SE USA_R50_SW USA_R50_NW USA_R64_NE USA_R64_SE USA_R64_SW USA_R64_NW USA_POCI USA_ROCI USA_RMW USA_EYE TOKYO_LAT TOKYO_LON TOKYO_GRADE TOKYO_WIND TOKYO_PRES TOKYO_R50_DIR TOKYO_R50_LONG TOKYO_R50_SHORT TOKYO_R30_DIR TOKYO_R30_LONG TOKYO_R30_SHORT TOKYO_LAND CMA_LAT CMA_LON CMA_CAT CMA_WIND CMA_PRES HKO_LAT HKO_LON HKO_CAT HKO_WIND HKO_PRES NEWDELHI_LAT NEWDELHI_LON NEWDELHI_GRADE NEWDELHI_WIND NEWDELHI_PRES NEWDELHI_CI NEWDELHI_DP NEWDELHI_POCI REUNION_LAT REUNION_LON REUNION_TYPE REUNION_WIND REUNION_PRES REUNION_TNUM REUNION_CI REUNION_RMW REUNION_R34_NE REUNION_R34_SE REUNION_R34_SW REUNION_R34_NW REUNION_R50_NE REUNION_R50_SE REUNION_R50_SW REUNION_R50_NW REUNION_R64_NE REUNION_R64_SE REUNION_R64_SW REUNION_R64_NW BOM_LAT BOM_LON BOM_TYPE BOM_WIND BOM_PRES BOM_TNUM BOM_CI BOM_RMW BOM_R34_NE BOM_R34_SE BOM_R34_SW BOM_R34_NW BOM_R50_NE BOM_R50_SE BOM_R50_SW BOM_R50_NW BOM_R64_NE BOM_R64_SE BOM_R64_SW BOM_R64_NW BOM_ROCI BOM_POCI BOM_EYE BOM_POS_METHOD BOM_PRES_METHOD NADI_LAT NADI_LON NADI_CAT NADI_WIND NADI_PRES WELLINGTON_LAT WELLINGTON_LON WELLINGTON_WIND WELLINGTON_PRES DS824_LAT DS824_LON DS824_STAGE DS824_WIND DS824_PRES TD9636_LAT TD9636_LON TD9636_STAGE TD9636_WIND TD9636_PRES TD9635_LAT TD9635_LON TD9635_WIND TD9635_PRES TD9635_ROCI NEUMANN_LAT NEUMANN_LON NEUMANN_CLASS NEUMANN_WIND NEUMANN_PRES MLC_LAT MLC_LON MLC_CLASS MLC_WIND MLC_PRES USA_GUST BOM_GUST BOM_GUST_PER REUNION_GUST REUNION_GUST_PER USA_SEAHGT USA_SEARAD_NE USA_SEARAD_SE USA_SEARAD_SW USA_SEARAD_NW STORM_SPEED STORM_DIR
2001039S13117 2001 6 SI WA VINCENT 2001-02-07 18:00:00 TS -13.3000 116.800 main 470 470 O___________O_ jtwc_sh SH092001 -13.3000 116.800 TD 25 -1 -13.3000 116.800 TC 25 4 258
2001039S13117 2001 6 SI WA VINCENT 2001-02-07 21:00:00 TS -13.3400 116.608 main 472 472 P___________P_ SH092001 -13.3400 116.608 TD 25 -1 -13.3400 116.608 TC 25 4 256
2001039S13117 2001 6 SI WA VINCENT 2001-02-08 00:00:00 TS -13.4000 116.400 main 486 486 O___________O_ jtwc_sh SH092001 -13.4000 116.400 TD 25 -1 -13.4000 116.400 TC 25 5 250
2001039S13117 2001 6 SI WA VINCENT 2001-02-08 03:00:00 TS -13.4925 116.165 main 500 500 P___________P_ SH092001 -13.4925 116.165 TD 25 -1 -13.4925 116.165 TC 25 5 248
2001039S13117 2001 6 SI WA VINCENT 2001-02-08 06:00:00 TS -13.6000 115.900 main 518 518 O___________O_ jtwc_sh SH092001 -13.6000 115.900 TD 25 -1 -13.6000 115.900 TC 25 6 250
2001039S13117 2001 6 SI WA VINCENT 2001-02-08 09:00:00 TS -13.6925 115.600 main 533 533 P___________P_ SH092001 -13.6925 115.600 TD 25 -1 -13.6925 115.600 TC 25 6 251
2001039S13117 2001 6 SI WA VINCENT 2001-02-08 12:00:00 TS -13.8000 115.300 main 550 550 O___________O_ jtwc_sh SH092001 -13.8000 115.300 TD 25 -1 -13.8000 115.300 TC 25 6 246
2001039S13117 2001 6 SI WA VINCENT 2001-02-08 15:00:00 TS -13.9350 115.035 main 569 569 P___________P_ SH092001 -13.9350 115.035 TD 25 -1 -13.9350 115.035 TC 25 6 238
2001039S13117 2001 6 SI WA VINCENT 2001-02-08 18:00:00 TS -14.1000 114.800 main 593 593 O___________O_ jtwc_sh SH092001 -14.1000 114.800 TD 25 -1 -14.1000 114.800 TC 25 6 230
2001039S13117 2001 6 SI WA VINCENT 2001-02-08 21:00:00 TS -14.3000 114.592 main 615 615 P___________P_ SH092001 -14.3000 114.592 TD 27 -1 -14.3000 114.592 TC 27 6 224
2001039S13117 2001 6 SI WA VINCENT 2001-02-09 00:00:00 TS -14.5000 114.400 main 638 638 O___________O_ jtwc_sh SH092001 -14.5000 114.400 TD 30 -1 -14.5000 114.400 TC 30 5 226
2001039S13117 2001 6 SI WA VINCENT 2001-02-09 03:00:00 TS -14.6725 114.193 main 662 662 P___________P_ SH092001 -14.6725 114.193 TD 30 -1 -14.6725 114.193 TC 30 5 232
2001039S13117 2001 6 SI WA VINCENT 2001-02-09 06:00:00 TS -14.8000 114.000 main 675 675 O___________O_ jtwc_sh SH092001 -14.8000 114.000 TD 30 -1 -14.8000 114.000 TC 30 4 239
2001039S13117 2001 6 SI WA VINCENT 2001-02-09 09:00:00 TS -14.8725 113.850 main 688 688 P___________P_ SH092001 -14.8725 113.850 TD 27 -1 -14.8725 113.850 TC 27 3 251
2001039S13117 2001 6 SI WA VINCENT 2001-02-09 12:00:00 TS -14.9000 113.700 main 690 690 O___________O_ jtwc_sh SH092001 -14.9000 113.700 TD 25 -1 -14.9000 113.700 TC 25 3 265
2001039S13117 2001 6 SI WA VINCENT 2001-02-09 15:00:00 TS -14.9000 113.507 main 693 693 P___________P_ SH092001 -14.9000 113.507 TD 25 -1 -14.9000 113.507 TC 25 4 270
2001039S13117 2001 6 SI WA VINCENT 2001-02-09 18:00:00 TS -14.9000 113.300 main 697 697 O___________O_ jtwc_sh SH092001 -14.9000 113.300 TD 25 -1 -14.9000 113.300 TC 25 4 265
2001039S13117 2001 6 SI WA VINCENT 2001-02-09 21:00:00 TS -14.9350 113.093 main 702 702 P___________P_ SH092001 -14.9350 113.093 TD 25 -1 -14.9350 113.093 TC 25 4 255
2001039S13117 2001 6 SI WA VINCENT 2001-02-10 00:00:00 TS -15.0000 112.900 main 718 718 O___________O_ jtwc_sh SH092001 -15.0000 112.900 TD 25 -1 -15.0000 112.900 TC 25 4 245
2001039S13117 2001 6 SI WA VINCENT 2001-02-10 03:00:00 TS -15.0925 112.743 main 735 735 P___________P_ SH092001 -15.0925 112.743 TD 27 -1 -15.0925 112.743 TC 27 4 236
2001039S13117 2001 6 SI WA VINCENT 2001-02-10 06:00:00 TS -15.2000 112.600 main 742 738 O___________O_ jtwc_sh SH092001 -15.2000 112.600 TD 30 -1 -15.2000 112.600 TC 30 4 235
2001039S13117 2001 6 SI WA VINCENT 2001-02-10 09:00:00 TS -15.3000 112.435 main 744 734 P___________P_ SH092001 -15.3000 112.435 TD 30 -1 -15.3000 112.435 TC 30 4 235
2001039S13117 2001 6 SI WA VINCENT 2001-02-10 12:00:00 TS -15.4000 112.300 main 740 731 O___________O_ jtwc_sh SH092001 -15.4000 112.300 TD 30 -1 -15.4000 112.300 TC 30 3 226
2001039S13117 2001 6 SI WA VINCENT 2001-02-10 15:00:00 TS -15.5000 112.227 main 737 727 P___________P_ SH092001 -15.5000 112.227 TD 30 -1 -15.5000 112.227 TC 30 2 207
2001039S13117 2001 6 SI WA VINCENT 2001-02-10 18:00:00 TS -15.6000 112.200 main 727 718 O___________O_ jtwc_sh SH092001 -15.6000 112.200 TD 30 -1 -15.6000 112.200 TC 30 2 193
2001039S13117 2001 6 SI WA VINCENT 2001-02-10 21:00:00 TS -15.7075 112.185 main 718 708 P___________P_ SH092001 -15.7075 112.185 TD 27 -1 -15.7075 112.185 TC 27 2 172
2001039S13117 2001 6 SI WA VINCENT 2001-02-11 00:00:00 TS -15.8000 112.200 20 bom main 708 708 O_____O_____O_ jtwc_sh SH092001 -15.8000 112.200 TD 25 -1 -15.8000 112.200 20 20 1.00000 3 5 -15.8000 112.200 TC 25 1 0
2001039S13117 2001 6 SI WA VINCENT 2001-02-11 03:00:00 TS -15.8265 112.195 main 708 708 P_____P_____P_ SH092001 -15.8575 112.250 TD 25 -1 -15.7026 111.977 20 20 -15.8575 112.250 TC 25 0 243
2001039S13117 2001 6 SI WA VINCENT 2001-02-11 06:00:00 TS -15.8182 112.164 20 bom main 708 708 O_____O_____O_ jtwc_sh SH092001 -15.9000 112.300 TD 25 -1 -15.6000 111.800 20 20 1.00000 3 5 -15.9000 112.300 TC 25 1 282
2001039S13117 2001 6 SI WA VINCENT 2001-02-11 09:00:00 TS -15.8125 112.123 main 711 711 P_____P_____P_ SH092001 -15.9725 112.338 TD 25 -1 -15.4925 111.693 20 22 -15.9725 112.338 TC 25 1 281
2001039S13117 2001 6 SI WA VINCENT 2001-02-11 12:00:00 TS -15.8000 112.067 25 bom main 711 711 O_____O_____O_ jtwc_sh SH092001 -16.0000 112.300 TD 25 -1 -15.4000 111.600 20 25 1.50000 3 5 -16.0000 112.300 TC 25 2 290
2001039S13117 2001 6 SI WA VINCENT 2001-02-11 15:00:00 TS -15.7397 111.912 main 727 727 P_____P_____P_ SH092001 -15.9300 112.137 TD 25 -1 -15.3591 111.461 20 25 -15.9300 112.137 TC 25 4 295
2001039S13117 2001 6 SI WA VINCENT 2001-02-11 18:00:00 TS -15.6333 111.700 25 bom main 745 745 O_____O_____O_ jtwc_sh SH092001 -15.8000 111.900 TD 25 -1 -15.3000 111.300 20 25 2.00000 3 5 -15.8000 111.900 TC 25 5 299
2001039S13117 2001 6 SI WA VINCENT 2001-02-11 21:00:00 TS -15.4907 111.452 main 762 762 P_____P_____P_ SH092001 -15.6576 111.620 TD 27 -1 -15.1570 111.117 20 27 -15.6576 111.620 TC 27 5 306
2001039S13117 2001 6 SI WA VINCENT 2001-02-12 00:00:00 TS -15.3224 111.249 main 774 774 O_____P_____O_ jtwc_sh SH092001 -15.5000 111.400 TD 30 -1 -14.9671 110.946 20 29 -15.5000 111.400 TC 30 5 313
2001039S13117 2001 6 SI WA VINCENT 2001-02-12 01:00:00 TS -15.2684 111.206 30 990 bom main 774 763 P_____O_____P_ SH092001 -15.4526 111.358 TD 30 -1 -14.9000 110.900 20 30 990 2.50000 160 3 5 -15.4526 111.358 TC 30 4 328
2001039S13117 2001 6 SI WA VINCENT 2001-02-12 03:00:00 TS -15.1608 111.152 main 763 752 P_____P_____P_ SH092001 -15.3574 111.325 TD 30 -1 -14.7676 110.806 20 33 988 160 -15.3574 111.325 TC 30 3 346
2001039S13117 2001 6 SI WA VINCENT 2001-02-12 04:00:00 TS -15.1052 111.156 35 988 bom main 752 741 P_____O_____P_ SH092001 -15.3078 111.333 TD 30 -1 -14.7000 110.800 30 35 988 3.00000 160 3 5 -15.3078 111.333 TC 30 4 23
2001039S13117 2001 6 SI WA VINCENT 2001-02-12 06:00:00 TS -14.9862 111.234 main 741 729 O_____P_____O_ jtwc_sh SH092001 -15.2000 111.400 TD 30 -1 -14.5587 110.901 30 38 985 160 -15.2000 111.400 TC 30 5 37
2001039S13117 2001 6 SI WA VINCENT 2001-02-12 07:00:00 TS -14.9208 111.296 40 984 bom main 729 717 P_____O_____P_ SH092001 -15.1311 111.444 TD 30 -1 -14.5000 111.000 30 40 984 3.00000 160 3 5 -15.1311 111.444 TC 30 6 51
2001039S13117 2001 6 SI WA VINCENT 2001-02-12 09:00:00 TS -14.7966 111.471 main 717 705 P_____P_____P_ SH092001 -14.9849 111.583 TD 32 -1 -14.4200 111.248 30 43 981 160 -14.9849 111.583 TC 32 7 57
2001039S13117 2001 6 SI WA VINCENT 2001-02-12 10:00:00 TS -14.7433 111.583 45 980 bom main 705 705 P_____O_____P_ SH092001 -14.9150 111.675 TD 33 -1 -14.4000 111.400 30 45 980 3.00000 160 3 5 -14.9150 111.675 TC 33 8 70
2001039S13117 2001 6 SI WA VINCENT 2001-02-12 12:00:00 TS -14.6649 111.843 main 705 694 O_____P_____O_ jtwc_sh SH092001 -14.8000 111.900 TS 35 0 -14.3946 111.728 30 45 980 160 -14.8000 111.900 TC 35 8 75
2001039S13117 2001 6 SI WA VINCENT 2001-02-12 13:00:00 TS -14.6406 111.981 45 980 bom main 695 691 P_____O_____P_ SH092001 -14.7610 112.022 TS 35 0 -14.4000 111.900 30 45 980 3.00000 160 3 5 -14.7610 112.022 TC 35 9 82
2001039S13117 2001 6 SI WA VINCENT 2001-02-12 15:00:00 TS -14.6057 112.279 main 691 689 P_____P_____P_ SH092001 -14.7125 112.305 TS 35 0 -14.3921 112.225 30 45 980 160 -14.7125 112.305 TC 35 9 85
2001039S13117 2001 6 SI WA VINCENT 2001-02-12 16:00:00 TS -14.6008 112.442 45 980 bom main 689 678 P_____O_____P_ SH092001 -14.7012 112.463 TS 35 0 -14.4000 112.400 30 45 980 3.00000 160 3 5 -14.7012 112.463 TC 35 10 92
2001039S13117 2001 6 SI WA VINCENT 2001-02-12 18:00:00 TS -14.6230 112.796 main 678 672 O_____P_____O_ jtwc_sh SH092001 -14.7000 112.800 TS 35 0 -14.4691 112.787 30 45 980 160 -14.7000 112.800 TC 35 10 94
2001039S13117 2001 6 SI WA VINCENT 2001-02-12 19:00:00 TS -14.6333 112.980 45 980 bom main 672 664 P_____O_____P_ SH092001 -14.7000 112.969 TS 35 0 -14.5000 113.000 30 45 980 3.00000 160 3 5 -14.7000 112.969 TC 35 11 92
2001039S13117 2001 6 SI WA VINCENT 2001-02-12 21:00:00 TS -14.6458 113.372 main 662 662 P_____P_____P_ SH092001 -14.7199 113.328 TS 35 0 -14.4975 113.461 30 45 982 142 -14.7199 113.328 TC 35 12 93
2001039S13117 2001 6 SI WA VINCENT 2001-02-12 22:00:00 TS -14.6599 113.576 45 984 bom main 669 663 P_____O_____P_ SH092001 -14.7399 113.515 TS 35 0 -14.5000 113.700 30 45 984 3.00000 133 3 5 -14.7399 113.515 TC 35 12 97
2001039S13117 2001 6 SI WA VINCENT 2001-02-13 00:00:00 TS -14.7151 113.992 main 663 662 O_____P_____O_ jtwc_sh SH092001 -14.8000 113.900 TS 35 0 -14.5454 114.175 30 41 984 133 -14.8000 113.900 TC 35 12 99
2001039S13117 2001 6 SI WA VINCENT 2001-02-13 01:00:00 TS -14.7591 114.200 40 984 bom main 673 672 P_____O_____P_ SH092001 -14.8386 114.099 TS 35 0 -14.6000 114.400 30 40 984 3.00000 133 4 5 -14.8386 114.099 TC 35 13 106
2001039S13117 2001 6 SI WA VINCENT 2001-02-13 03:00:00 TS -14.8864 114.615 main 675 658 P_____P_____P_ SH092001 -14.9350 114.507 TS 35 0 -14.7891 114.829 30 36 985 115 -14.9350 114.507 TC 35 12 109
2001039S13117 2001 6 SI WA VINCENT 2001-02-13 04:00:00 TS -14.9594 114.807 35 986 bom main 658 638 P_____O_____P_ SH092001 -14.9891 114.710 TS 35 0 -14.9000 115.000 30 35 986 3.00000 106 4 5 -14.9891 114.710 TC 35 11 113
2001039S13117 2001 6 SI WA VINCENT 2001-02-13 06:00:00 TS -15.1026 115.139 main 638 622 O_____P_____O_ jtwc_sh SH092001 -15.1000 115.100 TS 35 0 -15.1078 115.216 30 35 986 106 -15.1000 115.100 TC 35 10 114
2001039S13117 2001 6 SI WA VINCENT 2001-02-13 07:00:00 TS -15.1683 115.287 35 986 bom main 622 604 P_____O_____P_ SH092001 -15.1525 115.281 TS 35 0 -15.2000 115.300 30 35 986 3.00000 106 4 5 -15.1525 115.281 TC 35 9 114
2001039S13117 2001 6 SI WA VINCENT 2001-02-13 09:00:00 TS -15.2871 115.576 main 604 602 P_____P_____P_ SH092001 -15.2573 115.623 TS 35 0 -15.3466 115.484 30 31 987 106 -15.2573 115.623 TC 35 9 112
2001039S13117 2001 6 SI WA VINCENT 2001-02-13 10:00:00 TS -15.3385 115.724 30 988 bom main 602 586 P_____O_____P_ SH092001 -15.3078 115.785 TS 35 0 -15.4000 115.600 20 30 988 2.50000 106 4 5 -15.3078 115.785 TC 35 9 107
2001039S13117 2001 6 SI WA VINCENT 2001-02-13 12:00:00 TS -15.4267 116.038 main 586 573 O_____P_____O_ jtwc_sh SH092001 -15.4000 116.100 TS 35 0 -15.4800 115.915 20 30 988 123 -15.4000 116.100 TC 35 10 105
2001039S13117 2001 6 SI WA VINCENT 2001-02-13 13:00:00 TS -15.4584 116.204 30 988 bom main 573 571 P_____O_____P_ SH092001 -15.4363 116.256 TS 35 0 -15.5000 116.100 20 30 988 2.50000 133 3 5 -15.4390 116.256 TC 35 10 99
2001039S13117 2001 6 SI WA VINCENT 2001-02-13 15:00:00 TS -15.5016 116.537 main 571 567 P_____P_____P_ SH092001 -15.4999 116.558 TS 35 0 -15.4975 116.495 20 30 989 133 -15.5074 116.558 TC 35 10 98
2001039S13117 2001 6 SI WA VINCENT 2001-02-13 16:00:00 TS -15.5231 116.704 30 990 bom main 567 549 P_____O_____P_ SH092001 -15.5307 116.706 TS 35 0 -15.5000 116.700 20 30 990 2.50000 133 3 5 -15.5386 116.706 TC 35 10 100
2001039S13117 2001 6 SI WA VINCENT 2001-02-13 18:00:00 TS -15.5844 117.036 main 549 542 O_____P_____O_ jtwc_sh SH092001 -15.6000 117.000 TS 35 0 -15.5533 117.108 20 30 990 150 -15.6000 117.000 TC 35 10 102
2001039S13117 2001 6 SI WA VINCENT 2001-02-13 19:00:00 TS -15.6259 117.203 30 990 bom main 542 520 P_____O_____P_ SH092001 -15.6469 117.155 TS 35 0 -15.6000 117.300 20 30 990 2.50000 160 3 5 -15.6307 117.155 TC 35 10 107
2001039S13117 2001 6 SI WA VINCENT 2001-02-13 21:00:00 TS -15.7234 117.523 main 520 503 P_____P_____P_ SH092001 -15.7500 117.465 TS 35 0 -15.7279 117.639 20 30 990 160 -15.6925 117.465 TC 35 10 108
2001039S13117 2001 6 SI WA VINCENT 2001-02-13 22:00:00 TS -15.7760 117.677 30 990 bom main 503 474 P_____O_____P_ SH092001 -15.8025 117.616 TS 35 0 -15.8000 117.800 20 30 990 2.50000 160 3 5 -15.7254 117.616 TC 35 9 109
2001039S13117 2001 6 SI WA VINCENT 2001-02-14 00:00:00 TS -15.8778 117.986 main 474 464 O_____P_____O_ jtwc_sh SH092001 -15.9000 117.900 TS 35 0 -15.9334 118.157 20 30 990 160 -15.8000 117.900 TC 35 9 110
2001039S13117 2001 6 SI WA VINCENT 2001-02-14 01:00:00 TS -15.9269 118.119 30 990 bom main 464 440 P_____O_____P_ SH092001 -15.9363 118.028 TS 35 0 -16.0000 118.300 20 30 990 2.50000 160 4 5 -15.8442 118.028 TC 35 7 114
2001039S13117 2001 6 SI WA VINCENT 2001-02-14 03:00:00 TS -16.0225 118.324 main 440 426 P_____P_____P_ SH092001 -15.9999 118.265 TS 35 0 -16.1254 118.442 20 30 990 177 -15.9424 118.265 TC 35 6 117
2001039S13117 2001 6 SI WA VINCENT 2001-02-14 04:00:00 TS -16.0751 118.418 30 990 bom main 426 402 P_____O_____P_ SH092001 -16.0308 118.378 TS 35 0 -16.2000 118.500 20 30 990 2.50000 187 4 5 -15.9945 118.378 TC 35 7 121
2001039S13117 2001 6 SI WA VINCENT 2001-02-14 06:00:00 TS -16.2008 118.632 main 402 389 O_____P_____O_ jtwc_sh SH092001 -16.1000 118.600 TS 35 0 -16.4025 118.695 20 30 990 187 -16.1000 118.600 TC 35 7 121
2001039S13117 2001 6 SI WA VINCENT 2001-02-14 07:00:00 TS -16.2648 118.748 30 990 bom main 389 355 P_____O_____P_ SH092001 -16.1443 118.722 TS 35 0 -16.5000 118.800 20 30 990 2.50000 187 4 5 -16.1500 118.722 TC 35 8 118
2001039S13117 2001 6 SI WA VINCENT 2001-02-14 09:00:00 TS -16.3799 118.977 main 355 345 P_____P_____P_ SH092001 -16.2425 118.965 TS 35 0 -16.6472 119.000 20 26 990 187 -16.2500 118.965 TC 35 7 117
2001039S13117 2001 6 SI WA VINCENT 2001-02-14 10:00:00 TS -16.4315 119.088 25 990 bom main 345 321 P_____O_____P_ SH092001 -16.2946 119.082 TS 35 0 -16.7000 119.100 20 25 990 2.00000 187 4 5 -16.3000 119.082 TC 35 7 114
2001039S13117 2001 6 SI WA VINCENT 2001-02-14 12:00:00 TS -16.5219 119.303 main 321 287 O_____P_____O_ jtwc_sh SH092001 -16.4000 119.300 TS 35 0 -16.7657 119.310 20 25 990 195 -16.4000 119.300 TC 35 6 113
2001039S13117 2001 6 SI WA VINCENT 2001-02-14 15:00:00 TS -16.6313 119.590 main 287 274 P_____P_____P_ SH092001 -16.5500 119.580 TS 35 0 -16.7941 119.611 20 25 990 209 -16.5500 119.580 TC 35 6 112
2001039S13117 2001 6 SI WA VINCENT 2001-02-14 16:00:00 TS -16.6666 119.673 25 990 bom main 274 263 P_____O_____P_ SH092001 -16.6000 119.660 TS 35 0 -16.8000 119.700 20 25 990 2.00000 214 3 5 -16.6000 119.660 TC 35 5 118
2001039S13117 2001 6 SI WA VINCENT 2001-02-14 18:00:00 TS -16.7426 119.813 main 263 240 O_____P_____O_ jtwc_sh SH092001 -16.7000 119.800 TS 35 0 -16.8278 119.838 20 25 990 231 -16.7000 119.800 TC 35 4 120
2001039S13117 2001 6 SI WA VINCENT 2001-02-14 21:00:00 TS -16.8442 119.991 main 240 236 P_____P_____P_ SH092001 -16.8275 119.973 TS 35 0 -16.8776 120.027 20 25 990 258 -16.8275 119.973 TC 35 4 122
2001039S13117 2001 6 SI WA VINCENT 2001-02-14 22:00:00 TS -16.8842 120.046 25 990 bom main 236 222 P_____O_____P_ SH092001 -16.8763 120.019 TS 35 0 -16.9000 120.100 20 25 990 2.00000 268 3 5 -16.8763 120.019 TC 35 4 130
2001039S13117 2001 6 SI WA VINCENT 2001-02-15 00:00:00 TS -16.9772 120.154 main 212 196 O_____P_____O_ jtwc_sh SH092001 -17.0000 120.100 TS 35 0 -16.9315 120.263 20 25 990 268 -17.0000 120.100 TC 35 5 139
2001039S13117 2001 6 SI WA VINCENT 2001-02-15 03:00:00 TS -17.1767 120.309 main 196 183 P_____P_____P_ SH092001 -17.2474 120.178 TS 35 0 -17.0354 120.572 20 25 990 268 -17.2474 120.178 TC 35 5 144
2001039S13117 2001 6 SI WA VINCENT 2001-02-15 04:00:00 TS -17.2680 120.372 25 990 bom main 183 170 P_____O_____P_ SH092001 -17.3520 120.207 TS 35 0 -17.1000 120.700 20 25 990 2.00000 268 3 5 -17.3520 120.207 TC 35 8 153
2001039S13117 2001 6 SI WA VINCENT 2001-02-15 06:00:00 TS -17.5146 120.490 main 170 125 O_____P_____O_ jtwc_sh SH092001 -17.6000 120.300 TS 35 0 -17.2867 120.998 20 25 990 268 -17.6000 120.300 TC 35 10 154
2001039S13117 2001 6 SI WA VINCENT 2001-02-15 09:00:00 TS -17.9826 120.742 main 125 104 P_____P_____P_ SH092001 -18.0624 120.548 TS 35 0 -17.6631 121.518 20 25 990 268 -18.0624 120.548 TC 35 11 159
2001039S13117 2001 6 SI WA VINCENT 2001-02-15 10:00:00 TS -18.1884 120.771 25 990 bom main 104 84 P_____O_____P_ SH092001 -18.2370 120.655 TS 35 0 -17.8000 121.700 20 25 990 1.50000 268 3 7 -18.2370 120.655 TC 35 13 166
2001039S13117 2001 6 SI WA VINCENT 2001-02-15 12:00:00 TS -18.6000 120.900 main 84 15 O___________O_ jtwc_sh SH092001 -18.6000 120.900 TS 35 0 20 -18.6000 120.900 TC 35 13 151
2001039S13117 2001 6 SI WA VINCENT 2001-02-15 15:00:00 TS -19.1503 121.329 main 10 0 P___________P_ SH092001 -19.1503 121.329 TS 32 -1 20 -19.1503 121.329 TC 32 14 142
2001039S13117 2001 6 SI WA VINCENT 2001-02-15 18:00:00 TS -19.7000 121.800 main 0 O___________O_ jtwc_sh SH092001 -19.7000 121.800 TD 30 -1 -19.7000 121.800 TC 30 14 141

IBTrACS Databaseについて

本データベースは、米国NOAAが公開する1842年以降の世界の熱帯低気圧のベストトラックデータアーカイブInternational Best Track Archive for Climate Stewardship (IBTrACS)を、ウェブで閲覧しやすい形式に変換したものです。

最終更新日:2021-10-19